sensor_id;sensor_type;location;lat;lon;timestamp;P1;durP1;ratioP1;P2;durP2;ratioP2
56181;SDS011;51963;46.052;14.544;2023-07-13T00:00:01;11.48;;;7.78;;
56181;SDS011;51963;46.052;14.544;2023-07-13T00:02:30;12.77;;;7.22;;
56181;SDS011;51963;46.052;14.544;2023-07-13T00:04:58;13.43;;;7.40;;
56181;SDS011;51963;46.052;14.544;2023-07-13T00:07:23;15.02;;;7.50;;
56181;SDS011;51963;46.052;14.544;2023-07-13T00:09:49;11.85;;;6.82;;
56181;SDS011;51963;46.052;14.544;2023-07-13T00:12:25;11.73;;;6.93;;
56181;SDS011;51963;46.052;14.544;2023-07-13T00:14:55;11.68;;;7.03;;
56181;SDS011;51963;46.052;14.544;2023-07-13T00:17:25;8.93;;;6.78;;
56181;SDS011;51963;46.052;14.544;2023-07-13T00:19:52;12.35;;;7.45;;
56181;SDS011;51963;46.052;14.544;2023-07-13T00:22:18;11.48;;;7.03;;
56181;SDS011;51963;46.052;14.544;2023-07-13T00:24:45;14.32;;;7.45;;
56181;SDS011;51963;46.052;14.544;2023-07-13T00:27:11;15.38;;;7.70;;
56181;SDS011;51963;46.052;14.544;2023-07-13T00:29:38;15.02;;;7.28;;
56181;SDS011;51963;46.052;14.544;2023-07-13T00:32:04;18.52;;;7.47;;
56181;SDS011;51963;46.052;14.544;2023-07-13T00:34:31;15.95;;;7.97;;
56181;SDS011;51963;46.052;14.544;2023-07-13T00:36:59;12.15;;;7.70;;
56181;SDS011;51963;46.052;14.544;2023-07-13T00:39:25;16.27;;;8.32;;
56181;SDS011;51963;46.052;14.544;2023-07-13T00:41:52;13.65;;;7.40;;
56181;SDS011;51963;46.052;14.544;2023-07-13T00:44:19;11.00;;;6.88;;
56181;SDS011;51963;46.052;14.544;2023-07-13T00:46:48;16.45;;;8.32;;
56181;SDS011;51963;46.052;14.544;2023-07-13T00:49:15;15.90;;;7.72;;
56181;SDS011;51963;46.052;14.544;2023-07-13T00:51:45;16.95;;;7.82;;
56181;SDS011;51963;46.052;14.544;2023-07-13T00:54:17;17.83;;;7.78;;
56181;SDS011;51963;46.052;14.544;2023-07-13T00:56:47;14.80;;;7.60;;
56181;SDS011;51963;46.052;14.544;2023-07-13T00:59:15;15.13;;;7.85;;
56181;SDS011;51963;46.052;14.544;2023-07-13T01:01:45;19.85;;;8.00;;
56181;SDS011;51963;46.052;14.544;2023-07-13T01:04:11;16.67;;;7.88;;
56181;SDS011;51963;46.052;14.544;2023-07-13T01:06:38;11.32;;;7.85;;
56181;SDS011;51963;46.052;14.544;2023-07-13T01:09:05;16.60;;;6.93;;
56181;SDS011;51963;46.052;14.544;2023-07-13T01:11:35;15.38;;;7.63;;
56181;SDS011;51963;46.052;14.544;2023-07-13T01:14:02;15.40;;;7.65;;
56181;SDS011;51963;46.052;14.544;2023-07-13T01:16:30;12.20;;;6.17;;
56181;SDS011;51963;46.052;14.544;2023-07-13T01:18:58;10.27;;;2.92;;
56181;SDS011;51963;46.052;14.544;2023-07-13T01:21:27;8.38;;;2.55;;
56181;SDS011;51963;46.052;14.544;2023-07-13T01:23:53;6.70;;;1.52;;
56181;SDS011;51963;46.052;14.544;2023-07-13T01:26:21;3.60;;;0.88;;
56181;SDS011;51963;46.052;14.544;2023-07-13T01:28:47;7.90;;;1.30;;
56181;SDS011;51963;46.052;14.544;2023-07-13T01:31:15;7.13;;;1.23;;
56181;SDS011;51963;46.052;14.544;2023-07-13T01:36:07;3.60;;;1.23;;
56181;SDS011;51963;46.052;14.544;2023-07-13T01:38:34;3.55;;;1.08;;
56181;SDS011;51963;46.052;14.544;2023-07-13T01:41:01;5.45;;;1.85;;
56181;SDS011;51963;46.052;14.544;2023-07-13T01:43:27;5.88;;;1.85;;
56181;SDS011;51963;46.052;14.544;2023-07-13T01:45:53;7.55;;;1.90;;
56181;SDS011;51963;46.052;14.544;2023-07-13T01:48:19;6.70;;;1.45;;
56181;SDS011;51963;46.052;14.544;2023-07-13T01:50:47;5.60;;;2.00;;
56181;SDS011;51963;46.052;14.544;2023-07-13T01:53:16;3.63;;;1.55;;
56181;SDS011;51963;46.052;14.544;2023-07-13T01:55:44;4.75;;;1.50;;
56181;SDS011;51963;46.052;14.544;2023-07-13T01:58:10;7.05;;;2.03;;
56181;SDS011;51963;46.052;14.544;2023-07-13T02:00:35;4.38;;;1.95;;
56181;SDS011;51963;46.052;14.544;2023-07-13T02:03:01;5.60;;;1.75;;
56181;SDS011;51963;46.052;14.544;2023-07-13T02:05:27;3.88;;;1.70;;
56181;SDS011;51963;46.052;14.544;2023-07-13T02:07:55;3.80;;;1.70;;
56181;SDS011;51963;46.052;14.544;2023-07-13T02:10:21;5.53;;;2.13;;
56181;SDS011;51963;46.052;14.544;2023-07-13T02:15:16;4.60;;;1.58;;
56181;SDS011;51963;46.052;14.544;2023-07-13T02:17:42;4.47;;;1.50;;
56181;SDS011;51963;46.052;14.544;2023-07-13T02:20:08;5.13;;;1.58;;
56181;SDS011;51963;46.052;14.544;2023-07-13T02:22:35;2.70;;;1.30;;
56181;SDS011;51963;46.052;14.544;2023-07-13T02:25:00;4.25;;;1.50;;
56181;SDS011;51963;46.052;14.544;2023-07-13T02:27:27;5.53;;;1.52;;
56181;SDS011;51963;46.052;14.544;2023-07-13T02:29:53;8.70;;;2.08;;
56181;SDS011;51963;46.052;14.544;2023-07-13T02:32:20;5.97;;;2.10;;
56181;SDS011;51963;46.052;14.544;2023-07-13T02:34:46;4.95;;;1.70;;
56181;SDS011;51963;46.052;14.544;2023-07-13T02:37:12;5.97;;;1.58;;
56181;SDS011;51963;46.052;14.544;2023-07-13T02:39:37;7.10;;;1.65;;
56181;SDS011;51963;46.052;14.544;2023-07-13T02:42:03;7.00;;;1.90;;
56181;SDS011;51963;46.052;14.544;2023-07-13T02:44:30;5.95;;;2.05;;
56181;SDS011;51963;46.052;14.544;2023-07-13T02:46:55;6.72;;;1.90;;
56181;SDS011;51963;46.052;14.544;2023-07-13T02:49:21;8.05;;;2.10;;
56181;SDS011;51963;46.052;14.544;2023-07-13T02:51:49;7.75;;;1.80;;
56181;SDS011;51963;46.052;14.544;2023-07-13T02:54:16;7.00;;;2.20;;
56181;SDS011;51963;46.052;14.544;2023-07-13T02:56:42;7.80;;;2.22;;
56181;SDS011;51963;46.052;14.544;2023-07-13T02:59:09;8.57;;;2.55;;
56181;SDS011;51963;46.052;14.544;2023-07-13T03:01:35;9.23;;;2.60;;
56181;SDS011;51963;46.052;14.544;2023-07-13T03:04:01;7.07;;;2.05;;
56181;SDS011;51963;46.052;14.544;2023-07-13T03:06:31;6.60;;;2.30;;
56181;SDS011;51963;46.052;14.544;2023-07-13T03:11:29;5.93;;;2.17;;
56181;SDS011;51963;46.052;14.544;2023-07-13T03:14:21;6.85;;;2.35;;
56181;SDS011;51963;46.052;14.544;2023-07-13T03:16:47;7.70;;;2.75;;
56181;SDS011;51963;46.052;14.544;2023-07-13T03:19:13;3.78;;;2.33;;
56181;SDS011;51963;46.052;14.544;2023-07-13T03:21:42;6.25;;;2.75;;
56181;SDS011;51963;46.052;14.544;2023-07-13T03:24:08;8.15;;;2.17;;
56181;SDS011;51963;46.052;14.544;2023-07-13T03:26:34;8.88;;;2.70;;
56181;SDS011;51963;46.052;14.544;2023-07-13T03:29:07;6.57;;;2.17;;
56181;SDS011;51963;46.052;14.544;2023-07-13T03:34:01;6.82;;;2.00;;
56181;SDS011;51963;46.052;14.544;2023-07-13T03:36:29;6.50;;;2.13;;
56181;SDS011;51963;46.052;14.544;2023-07-13T03:39:02;7.07;;;2.38;;
56181;SDS011;51963;46.052;14.544;2023-07-13T03:41:36;3.78;;;1.77;;
56181;SDS011;51963;46.052;14.544;2023-07-13T03:44:02;4.78;;;1.65;;
56181;SDS011;51963;46.052;14.544;2023-07-13T03:46:28;4.60;;;2.03;;
56181;SDS011;51963;46.052;14.544;2023-07-13T03:48:55;8.47;;;2.30;;
56181;SDS011;51963;46.052;14.544;2023-07-13T03:51:22;6.35;;;1.92;;
56181;SDS011;51963;46.052;14.544;2023-07-13T03:53:49;6.13;;;2.20;;
56181;SDS011;51963;46.052;14.544;2023-07-13T03:58:44;7.07;;;2.10;;
56181;SDS011;51963;46.052;14.544;2023-07-13T04:01:21;5.50;;;1.92;;
56181;SDS011;51963;46.052;14.544;2023-07-13T04:03:50;5.30;;;1.80;;
56181;SDS011;51963;46.052;14.544;2023-07-13T04:06:26;4.97;;;2.10;;
56181;SDS011;51963;46.052;14.544;2023-07-13T04:08:57;4.93;;;1.90;;
56181;SDS011;51963;46.052;14.544;2023-07-13T04:11:26;5.32;;;2.00;;
56181;SDS011;51963;46.052;14.544;2023-07-13T04:13:53;6.60;;;1.95;;
56181;SDS011;51963;46.052;14.544;2023-07-13T04:16:20;7.70;;;1.75;;
56181;SDS011;51963;46.052;14.544;2023-07-13T04:18:46;6.88;;;2.30;;
56181;SDS011;51963;46.052;14.544;2023-07-13T04:21:13;3.53;;;2.28;;
56181;SDS011;51963;46.052;14.544;2023-07-13T04:23:39;8.05;;;3.03;;
56181;SDS011;51963;46.052;14.544;2023-07-13T04:26:06;5.47;;;2.30;;
56181;SDS011;51963;46.052;14.544;2023-07-13T04:28:32;5.78;;;2.50;;
56181;SDS011;51963;46.052;14.544;2023-07-13T04:30:59;6.85;;;2.63;;
56181;SDS011;51963;46.052;14.544;2023-07-13T04:33:26;9.05;;;2.92;;
56181;SDS011;51963;46.052;14.544;2023-07-13T04:35:53;5.35;;;2.65;;
56181;SDS011;51963;46.052;14.544;2023-07-13T04:38:23;3.80;;;1.98;;
56181;SDS011;51963;46.052;14.544;2023-07-13T04:40:50;5.82;;;2.22;;
56181;SDS011;51963;46.052;14.544;2023-07-13T04:43:16;6.93;;;2.63;;
56181;SDS011;51963;46.052;14.544;2023-07-13T04:45:42;4.88;;;2.20;;
56181;SDS011;51963;46.052;14.544;2023-07-13T04:48:08;6.50;;;2.50;;
56181;SDS011;51963;46.052;14.544;2023-07-13T04:50:36;5.65;;;2.13;;
56181;SDS011;51963;46.052;14.544;2023-07-13T04:53:02;4.45;;;2.15;;
56181;SDS011;51963;46.052;14.544;2023-07-13T04:55:29;6.45;;;2.33;;
56181;SDS011;51963;46.052;14.544;2023-07-13T04:57:56;7.30;;;2.45;;
56181;SDS011;51963;46.052;14.544;2023-07-13T05:00:24;8.52;;;2.50;;
56181;SDS011;51963;46.052;14.544;2023-07-13T05:02:50;6.35;;;2.15;;
56181;SDS011;51963;46.052;14.544;2023-07-13T05:05:20;7.35;;;2.40;;
56181;SDS011;51963;46.052;14.544;2023-07-13T05:07:46;9.32;;;3.47;;
56181;SDS011;51963;46.052;14.544;2023-07-13T05:10:12;7.93;;;2.60;;
56181;SDS011;51963;46.052;14.544;2023-07-13T05:12:38;5.20;;;2.67;;
56181;SDS011;51963;46.052;14.544;2023-07-13T05:15:06;4.82;;;2.20;;
56181;SDS011;51963;46.052;14.544;2023-07-13T05:17:32;7.15;;;2.88;;
56181;SDS011;51963;46.052;14.544;2023-07-13T05:19:58;10.63;;;2.85;;
56181;SDS011;51963;46.052;14.544;2023-07-13T05:22:24;5.30;;;2.78;;
56181;SDS011;51963;46.052;14.544;2023-07-13T05:24:50;10.05;;;3.45;;
56181;SDS011;51963;46.052;14.544;2023-07-13T05:27:17;6.13;;;3.35;;
56181;SDS011;51963;46.052;14.544;2023-07-13T05:29:43;6.72;;;2.55;;
56181;SDS011;51963;46.052;14.544;2023-07-13T05:32:09;7.13;;;2.65;;
56181;SDS011;51963;46.052;14.544;2023-07-13T05:34:35;6.28;;;2.88;;
56181;SDS011;51963;46.052;14.544;2023-07-13T05:37:01;6.57;;;2.85;;
56181;SDS011;51963;46.052;14.544;2023-07-13T05:39:27;6.97;;;3.00;;
56181;SDS011;51963;46.052;14.544;2023-07-13T05:41:53;9.40;;;3.90;;
56181;SDS011;51963;46.052;14.544;2023-07-13T05:44:19;9.05;;;4.22;;
56181;SDS011;51963;46.052;14.544;2023-07-13T05:46:44;11.40;;;4.65;;
56181;SDS011;51963;46.052;14.544;2023-07-13T05:49:10;8.57;;;3.58;;
56181;SDS011;51963;46.052;14.544;2023-07-13T05:51:36;8.73;;;4.13;;
56181;SDS011;51963;46.052;14.544;2023-07-13T05:54:02;7.05;;;3.95;;
56181;SDS011;51963;46.052;14.544;2023-07-13T05:56:28;9.60;;;4.32;;
56181;SDS011;51963;46.052;14.544;2023-07-13T05:58:54;7.18;;;3.28;;
56181;SDS011;51963;46.052;14.544;2023-07-13T06:01:20;7.30;;;3.70;;
56181;SDS011;51963;46.052;14.544;2023-07-13T06:03:46;7.95;;;3.45;;
56181;SDS011;51963;46.052;14.544;2023-07-13T06:06:12;4.93;;;3.50;;
56181;SDS011;51963;46.052;14.544;2023-07-13T06:08:38;7.70;;;3.45;;
56181;SDS011;51963;46.052;14.544;2023-07-13T06:11:09;9.55;;;3.50;;
56181;SDS011;51963;46.052;14.544;2023-07-13T06:13:39;9.85;;;3.67;;
56181;SDS011;51963;46.052;14.544;2023-07-13T06:16:05;8.32;;;3.17;;
56181;SDS011;51963;46.052;14.544;2023-07-13T06:18:32;8.25;;;2.83;;
56181;SDS011;51963;46.052;14.544;2023-07-13T06:20:59;8.90;;;3.08;;
56181;SDS011;51963;46.052;14.544;2023-07-13T06:23:25;6.50;;;2.88;;
56181;SDS011;51963;46.052;14.544;2023-07-13T06:25:51;6.90;;;2.65;;
56181;SDS011;51963;46.052;14.544;2023-07-13T06:28:17;10.50;;;3.10;;
56181;SDS011;51963;46.052;14.544;2023-07-13T06:30:42;5.72;;;2.45;;
56181;SDS011;51963;46.052;14.544;2023-07-13T06:33:08;10.48;;;3.22;;
56181;SDS011;51963;46.052;14.544;2023-07-13T06:35:34;10.80;;;2.90;;
56181;SDS011;51963;46.052;14.544;2023-07-13T06:38:00;7.40;;;3.00;;
56181;SDS011;51963;46.052;14.544;2023-07-13T06:40:28;5.90;;;2.85;;
56181;SDS011;51963;46.052;14.544;2023-07-13T06:42:55;9.07;;;2.35;;
56181;SDS011;51963;46.052;14.544;2023-07-13T06:45:23;5.88;;;2.30;;
56181;SDS011;51963;46.052;14.544;2023-07-13T06:47:49;7.30;;;2.53;;
56181;SDS011;51963;46.052;14.544;2023-07-13T06:50:15;8.02;;;2.65;;
56181;SDS011;51963;46.052;14.544;2023-07-13T06:52:40;6.65;;;2.38;;
56181;SDS011;51963;46.052;14.544;2023-07-13T06:55:08;6.70;;;2.47;;
56181;SDS011;51963;46.052;14.544;2023-07-13T06:57:34;6.97;;;2.58;;
56181;SDS011;51963;46.052;14.544;2023-07-13T07:00:00;4.95;;;1.92;;
56181;SDS011;51963;46.052;14.544;2023-07-13T07:02:26;7.38;;;2.50;;
56181;SDS011;51963;46.052;14.544;2023-07-13T07:04:54;6.63;;;2.83;;
56181;SDS011;51963;46.052;14.544;2023-07-13T07:07:23;10.15;;;2.97;;
56181;SDS011;51963;46.052;14.544;2023-07-13T07:09:49;5.57;;;2.60;;
56181;SDS011;51963;46.052;14.544;2023-07-13T07:12:17;8.50;;;2.72;;
56181;SDS011;51963;46.052;14.544;2023-07-13T07:14:43;5.88;;;2.38;;
56181;SDS011;51963;46.052;14.544;2023-07-13T07:17:08;7.18;;;2.60;;
56181;SDS011;51963;46.052;14.544;2023-07-13T07:19:34;6.97;;;3.20;;
56181;SDS011;51963;46.052;14.544;2023-07-13T07:22:00;9.07;;;4.65;;
56181;SDS011;51963;46.052;14.544;2023-07-13T07:24:28;5.38;;;3.13;;
56181;SDS011;51963;46.052;14.544;2023-07-13T07:26:54;5.60;;;2.35;;
56181;SDS011;51963;46.052;14.544;2023-07-13T07:29:22;5.75;;;2.67;;
56181;SDS011;51963;46.052;14.544;2023-07-13T07:31:53;7.03;;;2.33;;
56181;SDS011;51963;46.052;14.544;2023-07-13T07:34:19;6.28;;;2.88;;
56181;SDS011;51963;46.052;14.544;2023-07-13T07:36:45;6.45;;;2.80;;
56181;SDS011;51963;46.052;14.544;2023-07-13T07:39:13;7.63;;;3.05;;
56181;SDS011;51963;46.052;14.544;2023-07-13T07:41:39;9.38;;;3.30;;
56181;SDS011;51963;46.052;14.544;2023-07-13T07:44:04;7.22;;;2.70;;
56181;SDS011;51963;46.052;14.544;2023-07-13T07:46:32;9.18;;;3.40;;
56181;SDS011;51963;46.052;14.544;2023-07-13T07:48:58;8.02;;;3.17;;
56181;SDS011;51963;46.052;14.544;2023-07-13T07:51:24;7.22;;;2.40;;
56181;SDS011;51963;46.052;14.544;2023-07-13T07:53:49;7.03;;;3.08;;
56181;SDS011;51963;46.052;14.544;2023-07-13T07:56:20;5.85;;;3.03;;
56181;SDS011;51963;46.052;14.544;2023-07-13T07:58:45;11.63;;;3.58;;
56181;SDS011;51963;46.052;14.544;2023-07-13T08:01:11;11.63;;;3.65;;
56181;SDS011;51963;46.052;14.544;2023-07-13T08:03:37;12.38;;;4.60;;
56181;SDS011;51963;46.052;14.544;2023-07-13T08:06:02;7.25;;;3.25;;
56181;SDS011;51963;46.052;14.544;2023-07-13T08:08:28;7.43;;;3.05;;
56181;SDS011;51963;46.052;14.544;2023-07-13T08:10:54;8.20;;;3.65;;
56181;SDS011;51963;46.052;14.544;2023-07-13T08:13:20;7.70;;;2.92;;
56181;SDS011;51963;46.052;14.544;2023-07-13T08:15:46;7.50;;;2.65;;
56181;SDS011;51963;46.052;14.544;2023-07-13T08:18:15;9.93;;;2.60;;
56181;SDS011;51963;46.052;14.544;2023-07-13T08:20:41;10.95;;;2.85;;
56181;SDS011;51963;46.052;14.544;2023-07-13T08:23:07;6.57;;;2.70;;
56181;SDS011;51963;46.052;14.544;2023-07-13T08:25:35;6.22;;;2.55;;
56181;SDS011;51963;46.052;14.544;2023-07-13T08:28:02;6.65;;;2.63;;
56181;SDS011;51963;46.052;14.544;2023-07-13T08:32:54;7.00;;;2.80;;
56181;SDS011;51963;46.052;14.544;2023-07-13T08:35:20;7.40;;;2.28;;
56181;SDS011;51963;46.052;14.544;2023-07-13T08:37:46;7.45;;;2.50;;
56181;SDS011;51963;46.052;14.544;2023-07-13T08:40:18;7.45;;;2.75;;
56181;SDS011;51963;46.052;14.544;2023-07-13T08:42:57;7.88;;;2.53;;
56181;SDS011;51963;46.052;14.544;2023-07-13T08:48:03;5.53;;;2.70;;
56181;SDS011;51963;46.052;14.544;2023-07-13T08:50:51;8.55;;;2.80;;
56181;SDS011;51963;46.052;14.544;2023-07-13T08:53:22;8.55;;;2.63;;
56181;SDS011;51963;46.052;14.544;2023-07-13T08:55:51;6.43;;;2.88;;
56181;SDS011;51963;46.052;14.544;2023-07-13T08:58:23;7.43;;;2.80;;
56181;SDS011;51963;46.052;14.544;2023-07-13T09:06:27;6.35;;;2.88;;
56181;SDS011;51963;46.052;14.544;2023-07-13T09:09:10;11.30;;;3.08;;
56181;SDS011;51963;46.052;14.544;2023-07-13T09:14:47;8.48;;;2.70;;
56181;SDS011;51963;46.052;14.544;2023-07-13T09:17:19;5.25;;;2.58;;
56181;SDS011;51963;46.052;14.544;2023-07-13T09:19:52;6.53;;;2.42;;
56181;SDS011;51963;46.052;14.544;2023-07-13T09:22:22;4.85;;;2.00;;
56181;SDS011;51963;46.052;14.544;2023-07-13T09:25:04;5.70;;;2.42;;
56181;SDS011;51963;46.052;14.544;2023-07-13T09:27:42;6.13;;;2.67;;
56181;SDS011;51963;46.052;14.544;2023-07-13T09:32:41;8.13;;;2.38;;
56181;SDS011;51963;46.052;14.544;2023-07-13T09:35:15;5.40;;;2.35;;
56181;SDS011;51963;46.052;14.544;2023-07-13T09:37:46;5.95;;;2.63;;
56181;SDS011;51963;46.052;14.544;2023-07-13T09:40:23;5.15;;;2.65;;
56181;SDS011;51963;46.052;14.544;2023-07-13T09:42:53;7.50;;;2.60;;
56181;SDS011;51963;46.052;14.544;2023-07-13T09:45:29;6.35;;;2.65;;
56181;SDS011;51963;46.052;14.544;2023-07-13T09:48:00;13.00;;;3.60;;
56181;SDS011;51963;46.052;14.544;2023-07-13T09:50:30;6.32;;;3.35;;
56181;SDS011;51963;46.052;14.544;2023-07-13T09:52:56;6.45;;;3.08;;
56181;SDS011;51963;46.052;14.544;2023-07-13T09:55:25;6.78;;;2.83;;
56181;SDS011;51963;46.052;14.544;2023-07-13T09:57:52;6.07;;;3.30;;
56181;SDS011;51963;46.052;14.544;2023-07-13T10:00:22;6.80;;;3.13;;
56181;SDS011;51963;46.052;14.544;2023-07-13T10:03:09;8.93;;;3.40;;
56181;SDS011;51963;46.052;14.544;2023-07-13T10:05:44;6.13;;;2.35;;
56181;SDS011;51963;46.052;14.544;2023-07-13T10:10:53;8.90;;;3.22;;
56181;SDS011;51963;46.052;14.544;2023-07-13T10:13:28;9.88;;;3.60;;
56181;SDS011;51963;46.052;14.544;2023-07-13T10:15:58;7.28;;;2.88;;
56181;SDS011;51963;46.052;14.544;2023-07-13T10:18:25;6.45;;;2.95;;
56181;SDS011;51963;46.052;14.544;2023-07-13T10:20:58;5.97;;;3.00;;
56181;SDS011;51963;46.052;14.544;2023-07-13T10:23:36;8.38;;;3.10;;
56181;SDS011;51963;46.052;14.544;2023-07-13T10:26:02;8.57;;;3.63;;
56181;SDS011;51963;46.052;14.544;2023-07-13T10:28:34;5.75;;;3.70;;
56181;SDS011;51963;46.052;14.544;2023-07-13T10:31:03;8.18;;;3.30;;
56181;SDS011;51963;46.052;14.544;2023-07-13T10:33:36;8.63;;;3.25;;
56181;SDS011;51963;46.052;14.544;2023-07-13T10:39:01;6.88;;;2.75;;
56181;SDS011;51963;46.052;14.544;2023-07-13T10:41:31;5.70;;;3.00;;
56181;SDS011;51963;46.052;14.544;2023-07-13T10:44:04;8.27;;;3.22;;
56181;SDS011;51963;46.052;14.544;2023-07-13T10:46:39;12.77;;;3.38;;
56181;SDS011;51963;46.052;14.544;2023-07-13T10:49:09;8.43;;;3.00;;
56181;SDS011;51963;46.052;14.544;2023-07-13T10:51:39;8.27;;;2.97;;
56181;SDS011;51963;46.052;14.544;2023-07-13T10:54:11;7.72;;;2.80;;
56181;SDS011;51963;46.052;14.544;2023-07-13T10:56:42;5.65;;;3.20;;
56181;SDS011;51963;46.052;14.544;2023-07-13T10:59:10;7.03;;;2.80;;
56181;SDS011;51963;46.052;14.544;2023-07-13T11:04:23;5.75;;;3.28;;
56181;SDS011;51963;46.052;14.544;2023-07-13T11:06:58;9.02;;;3.92;;
56181;SDS011;51963;46.052;14.544;2023-07-13T11:09:40;6.07;;;2.75;;
56181;SDS011;51963;46.052;14.544;2023-07-13T11:12:07;10.75;;;3.60;;
56181;SDS011;51963;46.052;14.544;2023-07-13T11:14:35;7.68;;;3.63;;
56181;SDS011;51963;46.052;14.544;2023-07-13T11:20:42;7.32;;;3.53;;
56181;SDS011;51963;46.052;14.544;2023-07-13T11:22:43;10.90;;;3.90;;
56181;SDS011;51963;46.052;14.544;2023-07-13T11:25:28;6.88;;;3.75;;
56181;SDS011;51963;46.052;14.544;2023-07-13T11:36:12;12.65;;;4.18;;
56181;SDS011;51963;46.052;14.544;2023-07-13T11:38:39;8.75;;;4.03;;
56181;SDS011;51963;46.052;14.544;2023-07-13T11:43:43;6.95;;;4.05;;
56181;SDS011;51963;46.052;14.544;2023-07-13T11:46:19;13.50;;;5.18;;
56181;SDS011;51963;46.052;14.544;2023-07-13T11:48:50;11.35;;;5.03;;
56181;SDS011;51963;46.052;14.544;2023-07-13T11:53:58;11.35;;;4.50;;
56181;SDS011;51963;46.052;14.544;2023-07-13T11:56:28;11.25;;;4.18;;
56181;SDS011;51963;46.052;14.544;2023-07-13T11:58:55;11.60;;;5.25;;
56181;SDS011;51963;46.052;14.544;2023-07-13T12:01:30;14.05;;;6.20;;
56181;SDS011;51963;46.052;14.544;2023-07-13T12:04:01;14.50;;;5.93;;
56181;SDS011;51963;46.052;14.544;2023-07-13T12:06:29;15.40;;;7.57;;
56181;SDS011;51963;46.052;14.544;2023-07-13T12:09:01;16.17;;;9.23;;
56181;SDS011;51963;46.052;14.544;2023-07-13T12:11:30;18.02;;;8.70;;
56181;SDS011;51963;46.052;14.544;2023-07-13T12:13:56;17.58;;;8.60;;
56181;SDS011;51963;46.052;14.544;2023-07-13T12:16:25;12.80;;;7.72;;
56181;SDS011;51963;46.052;14.544;2023-07-13T12:18:55;12.95;;;5.97;;
56181;SDS011;51963;46.052;14.544;2023-07-13T12:21:24;9.15;;;5.20;;
56181;SDS011;51963;46.052;14.544;2023-07-13T12:23:59;11.85;;;5.65;;
56181;SDS011;51963;46.052;14.544;2023-07-13T12:26:28;8.48;;;5.50;;
56181;SDS011;51963;46.052;14.544;2023-07-13T12:31:23;9.32;;;6.45;;
56181;SDS011;51963;46.052;14.544;2023-07-13T12:34:02;12.05;;;5.70;;
56181;SDS011;51963;46.052;14.544;2023-07-13T12:36:33;12.73;;;6.80;;
56181;SDS011;51963;46.052;14.544;2023-07-13T12:39:03;9.45;;;6.53;;
56181;SDS011;51963;46.052;14.544;2023-07-13T12:41:41;14.88;;;7.53;;
56181;SDS011;51963;46.052;14.544;2023-07-13T12:44:17;13.88;;;7.22;;
56181;SDS011;51963;46.052;14.544;2023-07-13T12:47:03;15.95;;;8.95;;
56181;SDS011;51963;46.052;14.544;2023-07-13T12:49:31;16.58;;;9.75;;
56181;SDS011;51963;46.052;14.544;2023-07-13T12:52:01;15.77;;;9.13;;
56181;SDS011;51963;46.052;14.544;2023-07-13T12:54:30;12.63;;;7.40;;
56181;SDS011;51963;46.052;14.544;2023-07-13T12:56:57;15.02;;;7.45;;
56181;SDS011;51963;46.052;14.544;2023-07-13T12:59:25;13.35;;;7.30;;
56181;SDS011;51963;46.052;14.544;2023-07-13T13:01:58;13.63;;;7.20;;
56181;SDS011;51963;46.052;14.544;2023-07-13T13:04:27;10.98;;;7.05;;
56181;SDS011;51963;46.052;14.544;2023-07-13T13:07:02;10.93;;;7.07;;
56181;SDS011;51963;46.052;14.544;2023-07-13T13:09:31;15.25;;;8.18;;
56181;SDS011;51963;46.052;14.544;2023-07-13T13:11:57;15.65;;;9.18;;
56181;SDS011;51963;46.052;14.544;2023-07-13T13:14:23;15.30;;;7.70;;
56181;SDS011;51963;46.052;14.544;2023-07-13T13:16:49;12.15;;;7.05;;
56181;SDS011;51963;46.052;14.544;2023-07-13T13:19:20;12.10;;;7.60;;
56181;SDS011;51963;46.052;14.544;2023-07-13T13:21:50;17.60;;;10.15;;
56181;SDS011;51963;46.052;14.544;2023-07-13T13:24:20;12.52;;;9.02;;
56181;SDS011;51963;46.052;14.544;2023-07-13T13:26:49;14.77;;;8.52;;
56181;SDS011;51963;46.052;14.544;2023-07-13T13:29:16;16.88;;;10.35;;
56181;SDS011;51963;46.052;14.544;2023-07-13T13:31:49;16.73;;;8.85;;
56181;SDS011;51963;46.052;14.544;2023-07-13T13:34:19;13.25;;;7.50;;
56181;SDS011;51963;46.052;14.544;2023-07-13T13:36:46;9.63;;;5.80;;
56181;SDS011;51963;46.052;14.544;2023-07-13T13:39:23;9.85;;;5.53;;
56181;SDS011;51963;46.052;14.544;2023-07-13T13:41:53;11.13;;;6.22;;
56181;SDS011;51963;46.052;14.544;2023-07-13T13:44:19;7.35;;;4.85;;
56181;SDS011;51963;46.052;14.544;2023-07-13T13:46:50;10.05;;;4.97;;
56181;SDS011;51963;46.052;14.544;2023-07-13T13:49:20;9.40;;;5.60;;
56181;SDS011;51963;46.052;14.544;2023-07-13T13:51:51;10.40;;;5.13;;
56181;SDS011;51963;46.052;14.544;2023-07-13T13:54:21;10.32;;;5.60;;
56181;SDS011;51963;46.052;14.544;2023-07-13T13:56:51;10.93;;;5.93;;
56181;SDS011;51963;46.052;14.544;2023-07-13T13:59:18;8.50;;;5.40;;
56181;SDS011;51963;46.052;14.544;2023-07-13T14:01:49;8.77;;;5.03;;
56181;SDS011;51963;46.052;14.544;2023-07-13T14:04:19;8.65;;;5.80;;
56181;SDS011;51963;46.052;14.544;2023-07-13T14:06:47;10.25;;;6.55;;
56181;SDS011;51963;46.052;14.544;2023-07-13T14:09:16;8.60;;;6.25;;
56181;SDS011;51963;46.052;14.544;2023-07-13T14:11:44;12.32;;;5.60;;
56181;SDS011;51963;46.052;14.544;2023-07-13T14:14:22;8.75;;;5.03;;
56181;SDS011;51963;46.052;14.544;2023-07-13T14:16:49;8.57;;;5.15;;
56181;SDS011;51963;46.052;14.544;2023-07-13T14:19:18;8.10;;;5.35;;
56181;SDS011;51963;46.052;14.544;2023-07-13T14:21:46;9.13;;;5.53;;
56181;SDS011;51963;46.052;14.544;2023-07-13T14:24:14;12.52;;;6.30;;
56181;SDS011;51963;46.052;14.544;2023-07-13T14:26:41;14.27;;;6.65;;
56181;SDS011;51963;46.052;14.544;2023-07-13T14:29:11;13.27;;;6.60;;
56181;SDS011;51963;46.052;14.544;2023-07-13T14:31:40;16.00;;;7.55;;
56181;SDS011;51963;46.052;14.544;2023-07-13T14:34:12;11.50;;;7.82;;
56181;SDS011;51963;46.052;14.544;2023-07-13T14:36:40;10.82;;;6.75;;
56181;SDS011;51963;46.052;14.544;2023-07-13T14:39:13;12.88;;;6.60;;
56181;SDS011;51963;46.052;14.544;2023-07-13T14:41:42;13.15;;;6.47;;
56181;SDS011;51963;46.052;14.544;2023-07-13T14:44:16;13.10;;;7.00;;
56181;SDS011;51963;46.052;14.544;2023-07-13T14:46:48;9.27;;;6.32;;
56181;SDS011;51963;46.052;14.544;2023-07-13T14:51:47;11.73;;;6.50;;
56181;SDS011;51963;46.052;14.544;2023-07-13T14:54:13;10.40;;;6.45;;
56181;SDS011;51963;46.052;14.544;2023-07-13T14:56:40;11.25;;;7.47;;
56181;SDS011;51963;46.052;14.544;2023-07-13T14:59:08;10.95;;;6.80;;
56181;SDS011;51963;46.052;14.544;2023-07-13T15:01:37;13.07;;;7.28;;
56181;SDS011;51963;46.052;14.544;2023-07-13T15:04:04;8.63;;;7.60;;
56181;SDS011;51963;46.052;14.544;2023-07-13T15:06:32;11.45;;;7.75;;
56181;SDS011;51963;46.052;14.544;2023-07-13T15:11:44;14.30;;;8.35;;
56181;SDS011;51963;46.052;14.544;2023-07-13T15:14:09;11.45;;;8.15;;
56181;SDS011;51963;46.052;14.544;2023-07-13T15:16:35;14.32;;;9.07;;
56181;SDS011;51963;46.052;14.544;2023-07-13T15:19:01;15.25;;;9.10;;
56181;SDS011;51963;46.052;14.544;2023-07-13T15:21:27;12.40;;;7.88;;
56181;SDS011;51963;46.052;14.544;2023-07-13T15:24:01;14.38;;;8.65;;
56181;SDS011;51963;46.052;14.544;2023-07-13T15:26:28;13.05;;;8.90;;
56181;SDS011;51963;46.052;14.544;2023-07-13T15:28:53;12.32;;;8.57;;
56181;SDS011;51963;46.052;14.544;2023-07-13T15:33:56;13.85;;;9.20;;
56181;SDS011;51963;46.052;14.544;2023-07-13T15:36:23;16.38;;;10.20;;
56181;SDS011;51963;46.052;14.544;2023-07-13T15:38:53;20.77;;;11.75;;
56181;SDS011;51963;46.052;14.544;2023-07-13T15:43:52;14.35;;;8.63;;